메인 페이지
METAR-TAF:

METAR-TAF

공항 :

리우데자네이루 갈레앙 국제공항, 리우데자네이루, 브라질

위도: 22-49S, 경도: 043-15W, 고도: 6m

현재 날씨관측

예보는 14분 전, 21:00시(UTC)에 발표되었습니다.
남남동9kt
온도 22°C
습도 65%
기압 1025 hPa
시정 10km 이상
고도 3000ft 상공 구름 조금

METAR: SBGL 062100Z 15009KT 9999 FEW030 22/15 Q1025

시각: 18:14 (21:14 UTC)

예보

예보는 5 시간 14분 전, 16:00시(UTC)에 발표되었습니다.
예보 대상 시간: 06일 18시부터 07일 24시까지 (UTC)
남남동8kt
시정 10km 이상
1500m 미만 상공 구름 및 적란운 없음
전환 중
06일 22시부터 06일 23시까지 (UTC)
5kt
전환 중
07일 06시부터 07일 07시까지 (UTC)
5kt
전환 중
07일 13시부터 07일 14시까지 (UTC)
동남동12kt
전환 중
07일 16시부터 07일 18시까지 (UTC)
남남동10kt

TAF: SBGL 061600Z 0618/0724 15008KT CAVOK TX26/0618Z TN16/0708Z BECMG 0622/0623 10005KT BECMG 0706/0707 36005KT BECMG 0713/0714 11012KT BECMG 0716/0718 15010KT RMK PFM

4,000개 이상의 공항 관측 자료 및 예보 (METAR 및 TAF 보고).

지도상에서 검색 가능한 기상관측소가 노란 점과 빨간 점으로 표시되어 있습니다.

기상관측소 명을 보려면 표시 위로 마우스를 이동하세요.

날씨 관측과 예보를 보려면 클릭하세요.

지도 변경 : 확대하려면 엑스 표시가 있는 녹색 버튼, 축소하려면 빼기 표시가 있는 녹색 버튼, 다음 페이지의 지도를 보려면 녹색 화살표를 클릭하세요.


METAR-TAF: